createdAt,value
2017-06-08T00:00:07.732Z,23.2
2017-06-08T00:02:04.932Z,23.2
2017-06-08T00:04:04.795Z,23.2
2017-06-08T00:06:05.475Z,23.2
2017-06-08T00:08:05.170Z,23.2
2017-06-08T00:10:07.668Z,23.2
2017-06-08T00:12:05.363Z,23.2
2017-06-08T00:14:05.082Z,23.2
2017-06-08T00:16:05.486Z,23.2
2017-06-08T00:18:04.978Z,23.2
2017-06-08T00:20:07.688Z,23.2
2017-06-08T00:22:05.433Z,23.2
2017-06-08T00:24:04.698Z,23.2
2017-06-08T00:26:08.020Z,23.2
2017-06-08T00:28:05.299Z,23.1
2017-06-08T00:30:07.500Z,23.2
2017-06-08T00:32:10.300Z,23.1
2017-06-08T00:34:05.644Z,23.1
2017-06-08T00:36:05.398Z,23.2
2017-06-08T00:38:10.227Z,23.1
2017-06-08T00:40:07.430Z,23.2
2017-06-08T00:42:04.724Z,23.1
2017-06-08T00:44:05.408Z,23.1
2017-06-08T00:46:05.121Z,23.1
2017-06-08T00:48:05.277Z,23.1
2017-06-08T00:50:05.538Z,23.1
2017-06-08T00:52:05.437Z,23.1
2017-06-08T00:54:05.112Z,23.1
2017-06-08T00:56:05.312Z,23.1
2017-06-08T00:58:05.144Z,23.1
2017-06-08T01:00:04.889Z,23.1
2017-06-08T01:02:05.164Z,23.1
2017-06-08T01:04:13.141Z,23.1
2017-06-08T01:06:05.376Z,23.1
2017-06-08T01:08:05.223Z,23.1
2017-06-08T01:10:05.050Z,23.1
2017-06-08T01:12:04.742Z,23.1
2017-06-08T01:14:05.451Z,23.1
2017-06-08T01:16:05.205Z,23.1
2017-06-08T01:18:07.631Z,23.1
2017-06-08T01:20:05.381Z,23.1
2017-06-08T01:22:04.858Z,23.1
2017-06-08T01:24:05.680Z,23.1
2017-06-08T01:26:05.395Z,23.1
2017-06-08T01:28:04.824Z,23.1
2017-06-08T01:30:05.480Z,23.1
2017-06-08T01:32:04.747Z,23.1
2017-06-08T01:34:05.532Z,23.1
2017-06-08T01:36:07.342Z,23.1
2017-06-08T01:38:05.141Z,23.1
2017-06-08T01:40:05.765Z,23.1
2017-06-08T01:42:04.974Z,23
2017-06-08T01:44:07.206Z,23
2017-06-08T01:46:05.095Z,23
2017-06-08T01:48:04.801Z,23
2017-06-08T01:50:08.070Z,23.1
2017-06-08T01:52:09.913Z,23
2017-06-08T01:54:08.209Z,23
2017-06-08T01:56:12.701Z,23
2017-06-08T01:58:05.357Z,23
2017-06-08T02:00:05.128Z,23
2017-06-08T02:02:05.422Z,23
2017-06-08T02:04:05.292Z,23
2017-06-08T02:06:05.028Z,23
2017-06-08T02:08:04.756Z,23
2017-06-08T02:10:08.355Z,23
2017-06-08T02:12:05.117Z,23
2017-06-08T02:14:04.822Z,23
2017-06-08T02:16:05.389Z,23
2017-06-08T02:18:05.285Z,23
2017-06-08T02:20:05.059Z,23
2017-06-08T02:22:04.954Z,23
2017-06-08T02:24:09.732Z,23
2017-06-08T02:26:05.481Z,23
2017-06-08T02:28:05.213Z,23
2017-06-08T02:30:04.995Z,23
2017-06-08T02:32:04.741Z,23
2017-06-08T02:34:08.313Z,23
2017-06-08T02:36:07.563Z,23
2017-06-08T02:38:05.407Z,23
2017-06-08T02:40:05.221Z,23
2017-06-08T02:42:04.946Z,23
2017-06-08T02:44:07.352Z,23
2017-06-08T02:46:07.749Z,23
2017-06-08T02:48:05.439Z,23
2017-06-08T02:50:05.108Z,23
2017-06-08T02:52:04.859Z,23
2017-06-08T02:54:05.548Z,23
2017-06-08T02:56:04.802Z,23
2017-06-08T02:58:04.663Z,23
2017-06-08T03:00:05.373Z,23
2017-06-08T03:02:07.592Z,23
2017-06-08T03:04:07.971Z,23
2017-06-08T03:06:07.149Z,23
2017-06-08T03:08:04.901Z,23
2017-06-08T03:10:04.797Z,23
2017-06-08T03:12:05.548Z,23
2017-06-08T03:14:05.303Z,23
2017-06-08T03:16:05.211Z,23
2017-06-08T03:18:04.667Z,23
2017-06-08T03:20:05.385Z,23
2017-06-08T03:22:05.438Z,23
2017-06-08T03:24:05.085Z,23
2017-06-08T03:26:04.852Z,23
2017-06-08T03:28:07.786Z,23
2017-06-08T03:30:05.638Z,23
2017-06-08T03:32:08.033Z,23
2017-06-08T03:34:04.828Z,23
2017-06-08T03:36:05.542Z,23
2017-06-08T03:38:04.924Z,23
2017-06-08T03:40:04.723Z,23
2017-06-08T03:42:07.514Z,23
2017-06-08T03:44:07.780Z,23
2017-06-08T03:46:05.145Z,23
2017-06-08T03:48:04.979Z,23
2017-06-08T03:50:04.670Z,23
2017-06-08T03:52:05.526Z,22.9
2017-06-08T03:54:04.767Z,22.9
2017-06-08T03:56:08.051Z,22.8
2017-06-08T03:58:04.791Z,22.8
2017-06-08T04:00:05.570Z,22.8
2017-06-08T04:02:04.924Z,22.8
2017-06-08T04:04:04.806Z,22.8
2017-06-08T04:06:05.982Z,22.8
2017-06-08T04:08:05.535Z,22.8
2017-06-08T04:10:05.267Z,22.8
2017-06-08T04:12:07.774Z,22.7
2017-06-08T04:14:10.588Z,22.7
2017-06-08T04:16:10.255Z,22.7
2017-06-08T04:18:05.151Z,22.7
2017-06-08T04:20:08.162Z,22.7
2017-06-08T04:22:12.597Z,22.7
2017-06-08T04:24:04.749Z,22.7
2017-06-08T04:26:05.432Z,22.7
2017-06-08T04:28:07.913Z,22.7
2017-06-08T04:30:08.807Z,22.7
2017-06-08T04:32:07.235Z,22.6
2017-06-08T04:34:06.093Z,22.6
2017-06-08T04:36:06.145Z,22.6
2017-06-08T04:38:07.486Z,22.6
2017-06-08T04:40:05.631Z,22.6
2017-06-08T04:42:05.393Z,22.6
2017-06-08T04:44:07.661Z,22.6
2017-06-08T04:46:05.725Z,22.6
2017-06-08T04:48:05.427Z,22.5
2017-06-08T04:50:05.155Z,22.5
2017-06-08T04:52:08.038Z,22.5
2017-06-08T04:54:04.755Z,22.6
2017-06-08T04:56:05.458Z,22.5
2017-06-08T04:58:05.201Z,22.5
2017-06-08T05:00:07.412Z,22.5
2017-06-08T05:02:07.180Z,22.5
2017-06-08T05:04:05.440Z,22.5
2017-06-08T05:06:05.140Z,22.6
2017-06-08T05:08:07.532Z,22.5
2017-06-08T05:10:07.917Z,22.5
2017-06-08T05:12:04.673Z,22.5
2017-06-08T05:14:05.467Z,22.5
2017-06-08T05:16:07.970Z,22.5
2017-06-08T05:18:07.453Z,22.5
2017-06-08T05:20:05.150Z,22.5
2017-06-08T05:22:04.881Z,22.5
2017-06-08T05:24:05.800Z,22.5
2017-06-08T05:26:05.584Z,22.5
2017-06-08T05:28:05.454Z,22.5
2017-06-08T05:30:05.199Z,22.5
2017-06-08T05:32:05.124Z,22.5
2017-06-08T05:34:05.839Z,22.5
2017-06-08T05:36:04.713Z,22.5
2017-06-08T05:38:05.415Z,22.5
2017-06-08T05:40:06.062Z,22.5
2017-06-08T05:42:04.814Z,22.5
2017-06-08T05:44:08.050Z,22.5
2017-06-08T05:46:07.435Z,22.6
2017-06-08T05:48:05.254Z,22.5
2017-06-08T05:50:07.459Z,22.5
2017-06-08T05:52:05.237Z,22.5
2017-06-08T05:54:05.449Z,22.5
2017-06-08T05:56:07.969Z,22.5
2017-06-08T05:58:04.756Z,22.5
2017-06-08T06:00:07.959Z,22.5
2017-06-08T06:02:04.749Z,22.5
2017-06-08T06:04:05.219Z,22.4
2017-06-08T06:06:07.611Z,22.5
2017-06-08T06:08:04.820Z,22.5
2017-06-08T06:10:05.728Z,22.5
2017-06-08T06:12:05.532Z,22.4
2017-06-08T06:14:05.262Z,22.4
2017-06-08T06:16:10.169Z,22.4
2017-06-08T06:18:12.815Z,22.4
2017-06-08T06:20:05.102Z,22.4
2017-06-08T06:22:07.759Z,22.4
2017-06-08T06:24:07.997Z,22.4
2017-06-08T06:26:09.769Z,22.4
2017-06-08T06:28:05.799Z,22.4
2017-06-08T06:30:05.524Z,22.4
2017-06-08T06:32:05.492Z,22.4
2017-06-08T06:34:08.355Z,22.5
2017-06-08T06:36:07.733Z,22.4
2017-06-08T06:38:05.549Z,22.4
2017-06-08T06:40:05.438Z,22.4
2017-06-08T06:42:05.205Z,22.4
2017-06-08T06:44:10.016Z,22.4
2017-06-08T06:46:04.709Z,22.4
2017-06-08T06:48:05.158Z,22.4
2017-06-08T06:50:04.883Z,22.4
2017-06-08T06:52:08.294Z,22.5
2017-06-08T06:54:07.589Z,22.5
2017-06-08T06:56:05.379Z,22.5
2017-06-08T06:58:05.690Z,22.5
2017-06-08T07:00:06.048Z,22.5
2017-06-08T07:02:05.537Z,22.6
2017-06-08T07:04:07.431Z,22.6
2017-06-08T07:06:05.120Z,22.6
2017-06-08T07:08:04.804Z,22.7
2017-06-08T07:10:05.476Z,22.7
2017-06-08T07:12:05.186Z,22.7
2017-06-08T07:14:04.880Z,22.7
2017-06-08T07:16:08.080Z,22.7
2017-06-08T07:18:04.981Z,22.7
2017-06-08T07:20:04.701Z,22.8
2017-06-08T07:22:05.408Z,22.8
2017-06-08T07:24:05.134Z,22.8
2017-06-08T07:26:04.836Z,22.8
2017-06-08T07:28:07.281Z,22.8
2017-06-08T07:30:04.955Z,22.8
2017-06-08T07:32:04.839Z,22.9
2017-06-08T07:34:05.634Z,22.9
2017-06-08T07:36:05.311Z,22.9
2017-06-08T07:38:05.220Z,22.9
2017-06-08T07:40:05.192Z,22.9
2017-06-08T07:42:07.651Z,22.9
2017-06-08T07:44:07.955Z,23
2017-06-08T07:46:09.926Z,22.9
2017-06-08T07:48:07.972Z,23
2017-06-08T07:50:04.686Z,23
2017-06-08T07:52:05.579Z,23
2017-06-08T07:54:05.300Z,23
2017-06-08T07:56:04.982Z,23
2017-06-08T07:58:07.892Z,23
2017-06-08T08:00:05.614Z,23
2017-06-08T08:02:04.805Z,23
2017-06-08T08:04:05.625Z,23
2017-06-08T08:06:05.362Z,23.1
2017-06-08T08:08:05.115Z,23.2
2017-06-08T08:10:05.028Z,23.2
2017-06-08T08:12:07.244Z,23.2
2017-06-08T08:14:04.939Z,23.2
2017-06-08T08:16:04.847Z,23.2
2017-06-08T08:18:07.300Z,23.3
2017-06-08T08:20:07.529Z,23.3
2017-06-08T08:22:05.050Z,23.3
2017-06-08T08:24:07.369Z,23.4
2017-06-08T08:26:05.080Z,23.3
2017-06-08T08:28:04.936Z,23.4
2017-06-08T08:30:04.659Z,23.4
2017-06-08T08:32:05.333Z,23.4
2017-06-08T08:34:05.183Z,23.4
2017-06-08T08:36:05.046Z,23.5
2017-06-08T08:38:04.795Z,23.5
2017-06-08T08:40:05.634Z,23.5
2017-06-08T08:42:07.372Z,23.5
2017-06-08T08:44:08.126Z,23.5
2017-06-08T08:46:04.916Z,23.5
2017-06-08T08:48:04.623Z,23.5
2017-06-08T08:50:05.283Z,23.5
2017-06-08T08:52:05.601Z,23.5
2017-06-08T08:54:05.292Z,23.6
2017-06-08T08:56:05.274Z,23.5
2017-06-08T08:58:05.147Z,23.6
2017-06-08T09:00:05.055Z,23.6
2017-06-08T09:02:09.830Z,23.6
2017-06-08T09:04:07.685Z,23.7
2017-06-08T09:06:05.436Z,23.7
2017-06-08T09:08:05.218Z,23.7
2017-06-08T09:10:05.061Z,23.7
2017-06-08T09:12:07.358Z,23.7
2017-06-08T09:14:05.585Z,23.6
2017-06-08T09:16:05.348Z,23.6
2017-06-08T09:18:05.308Z,23.6
2017-06-08T09:20:05.497Z,23.6
2017-06-08T09:22:07.881Z,23.6
2017-06-08T09:24:05.255Z,23.5
2017-06-08T09:26:08.033Z,23.6
2017-06-08T09:28:09.826Z,23.5
2017-06-08T09:30:05.488Z,23.5
2017-06-08T09:32:05.213Z,23.6
2017-06-08T09:34:05.590Z,23.6
2017-06-08T09:36:05.369Z,23.6
2017-06-08T09:38:10.191Z,23.6
2017-06-08T09:40:07.632Z,23.5
2017-06-08T09:42:05.343Z,23.6
2017-06-08T09:44:05.162Z,23.5
2017-06-08T09:46:04.917Z,23.5
2017-06-08T09:48:05.140Z,23.6
2017-06-08T09:50:04.980Z,23.6
2017-06-08T09:52:04.829Z,23.5
2017-06-08T09:54:08.054Z,23.6
2017-06-08T09:56:04.913Z,23.5
2017-06-08T09:58:04.786Z,23.5
2017-06-08T10:00:15.569Z,23.6
2017-06-08T10:02:07.876Z,23.6
2017-06-08T10:04:10.999Z,23.6
2017-06-08T10:06:07.274Z,23.6
2017-06-08T10:08:05.547Z,23.6
2017-06-08T10:10:05.441Z,23.6
2017-06-08T10:12:05.572Z,23.6
2017-06-08T10:14:05.335Z,23.6
2017-06-08T10:16:05.100Z,23.6
2017-06-08T10:18:05.103Z,23.7
2017-06-08T10:20:04.877Z,23.6
2017-06-08T10:22:05.718Z,23.6
2017-06-08T10:24:04.940Z,23.6
2017-06-08T10:26:09.726Z,23.7
2017-06-08T10:28:20.449Z,23.7
2017-06-08T10:30:05.140Z,23.7
2017-06-08T10:32:09.709Z,23.8
2017-06-08T10:34:04.880Z,23.7
2017-06-08T10:36:05.017Z,23.7
2017-06-08T10:38:04.979Z,23.7
2017-06-08T10:40:05.259Z,23.7
2017-06-08T10:42:05.006Z,23.7
2017-06-08T10:44:07.268Z,23.8
2017-06-08T10:46:07.723Z,23.8
2017-06-08T10:48:05.427Z,23.8
2017-06-08T10:50:07.706Z,23.8
2017-06-08T10:52:05.558Z,23.8
2017-06-08T10:54:05.278Z,23.9
2017-06-08T10:56:05.575Z,23.8
2017-06-08T10:58:10.275Z,23.9
2017-06-08T11:00:07.591Z,23.9
2017-06-08T11:02:07.861Z,23.9
2017-06-08T11:04:07.740Z,23.9
2017-06-08T11:06:04.949Z,23.9
2017-06-08T11:08:07.269Z,24
2017-06-08T11:10:10.190Z,24
2017-06-08T11:12:07.463Z,24
2017-06-08T11:14:05.339Z,24
2017-06-08T11:16:07.964Z,24
2017-06-08T11:18:04.904Z,24
2017-06-08T11:20:05.584Z,24
2017-06-08T11:22:05.297Z,24
2017-06-08T11:24:05.122Z,24
2017-06-08T11:26:04.916Z,24
2017-06-08T11:28:05.768Z,24
2017-06-08T11:30:05.485Z,24
2017-06-08T11:32:05.628Z,24
2017-06-08T11:34:04.963Z,24.1
2017-06-08T11:36:09.729Z,24.1
2017-06-08T11:38:05.398Z,24.1
2017-06-08T11:40:05.461Z,24
2017-06-08T11:42:05.154Z,24
2017-06-08T11:44:04.850Z,24
2017-06-08T11:46:08.237Z,24
2017-06-08T11:48:05.615Z,24
2017-06-08T11:50:05.632Z,24
2017-06-08T11:52:05.520Z,24
2017-06-08T11:54:07.718Z,24
2017-06-08T11:56:05.573Z,24
2017-06-08T11:58:05.651Z,24
2017-06-08T12:00:04.869Z,24
2017-06-08T12:02:08.107Z,24
2017-06-08T12:04:05.198Z,24
2017-06-08T12:06:10.089Z,24
2017-06-08T12:08:05.334Z,24
2017-06-08T12:10:05.380Z,24
2017-06-08T12:12:12.926Z,24
2017-06-08T12:14:07.116Z,24
2017-06-08T12:16:07.445Z,24
2017-06-08T12:18:05.544Z,24
2017-06-08T12:20:06.387Z,24
2017-06-08T12:22:05.234Z,24
2017-06-08T12:24:05.189Z,24
2017-06-08T12:26:05.428Z,24
2017-06-08T12:28:10.376Z,24
2017-06-08T12:30:05.066Z,24
2017-06-08T12:32:07.794Z,24
2017-06-08T12:34:05.851Z,24
2017-06-08T12:36:10.770Z,24
2017-06-08T12:38:11.181Z,24
2017-06-08T12:40:05.051Z,24
2017-06-08T12:42:04.770Z,24
2017-06-08T12:44:05.484Z,24
2017-06-08T12:46:05.400Z,24
2017-06-08T12:48:06.127Z,24
2017-06-08T12:50:10.412Z,24
2017-06-08T12:52:05.284Z,24
2017-06-08T12:54:10.145Z,24
2017-06-08T12:56:04.848Z,24
2017-06-08T12:58:05.021Z,24
2017-06-08T13:00:04.689Z,24
2017-06-08T13:02:04.618Z,24
2017-06-08T13:04:05.030Z,24
2017-06-08T13:06:05.173Z,24
2017-06-08T13:08:05.000Z,24
2017-06-08T13:10:04.692Z,24
2017-06-08T13:12:07.897Z,24
2017-06-08T13:14:08.167Z,24
2017-06-08T13:16:13.016Z,24
2017-06-08T13:18:04.894Z,24
2017-06-08T13:20:10.641Z,24
2017-06-08T13:22:05.100Z,24
2017-06-08T13:24:04.875Z,24
2017-06-08T13:26:08.128Z,24
2017-06-08T13:28:05.525Z,24
2017-06-08T13:30:05.321Z,24
2017-06-08T13:32:04.647Z,24
2017-06-08T13:34:05.351Z,24
2017-06-08T13:36:07.547Z,24
2017-06-08T13:38:04.763Z,24
2017-06-08T13:40:05.181Z,24
2017-06-08T13:42:05.990Z,24
2017-06-08T13:44:04.713Z,24
2017-06-08T13:46:08.253Z,24
2017-06-08T13:48:05.009Z,24
2017-06-08T13:50:04.691Z,24
2017-06-08T13:52:05.716Z,24
2017-06-08T13:54:05.412Z,24
2017-06-08T13:56:12.741Z,24
2017-06-08T13:58:10.701Z,24
2017-06-08T14:00:05.455Z,24
2017-06-08T14:02:07.668Z,24
2017-06-08T14:04:05.521Z,24
2017-06-08T14:06:05.266Z,24
2017-06-08T14:08:05.512Z,24
2017-06-08T14:10:05.275Z,24.1
2017-06-08T14:12:05.343Z,24.1
2017-06-08T14:14:05.030Z,24
2017-06-08T14:16:05.460Z,24
2017-06-08T14:18:05.407Z,24
2017-06-08T14:20:07.689Z,24
2017-06-08T14:22:05.563Z,24
2017-06-08T14:24:05.432Z,24.1
2017-06-08T14:26:07.790Z,24.2
2017-06-08T14:28:05.691Z,24.2
2017-06-08T14:30:05.364Z,24.2
2017-06-08T14:32:10.172Z,24.2
2017-06-08T14:34:07.542Z,24.3
2017-06-08T14:36:05.553Z,24.3
2017-06-08T14:38:05.250Z,24.3
2017-06-08T14:40:07.625Z,24.3
2017-06-08T14:42:05.257Z,24.3
2017-06-08T14:44:05.347Z,24.3
2017-06-08T14:46:05.228Z,24.3
2017-06-08T14:48:04.984Z,24.3
2017-06-08T14:50:05.234Z,24.3
2017-06-08T14:52:05.110Z,24.3
2017-06-08T14:54:07.446Z,24.3
2017-06-08T14:56:05.180Z,24.3
2017-06-08T14:58:12.429Z,24.4
2017-06-08T15:00:05.088Z,24.4
2017-06-08T15:02:04.809Z,24.4
2017-06-08T15:04:05.740Z,24.4
2017-06-08T15:06:05.491Z,24.4
2017-06-08T15:08:05.446Z,24.4
2017-06-08T15:10:05.556Z,24.4
2017-06-08T15:12:07.684Z,24.4
2017-06-08T15:14:05.120Z,24.4
2017-06-08T15:16:05.430Z,24.4
2017-06-08T15:18:04.849Z,24.4
2017-06-08T15:20:05.610Z,24.4
2017-06-08T15:22:05.483Z,24.4
2017-06-08T15:24:05.231Z,24.4
2017-06-08T15:26:04.989Z,24.4
2017-06-08T15:28:05.228Z,24.4
2017-06-08T15:30:08.662Z,24.4
2017-06-08T15:32:10.840Z,24.4
2017-06-08T15:34:05.489Z,24.4
2017-06-08T15:36:05.307Z,24.4
2017-06-08T15:38:05.079Z,24.4
2017-06-08T15:40:04.921Z,24.5
2017-06-08T15:42:10.648Z,24.4
2017-06-08T15:44:10.383Z,24.4
2017-06-08T15:46:07.848Z,24.4
2017-06-08T15:48:05.900Z,24.4
2017-06-08T15:50:05.692Z,24.4
2017-06-08T15:52:05.010Z,24.4
2017-06-08T15:54:07.405Z,24.4
2017-06-08T15:56:04.613Z,24.4
2017-06-08T15:58:07.958Z,24.4
2017-06-08T16:00:04.857Z,24.4
2017-06-08T16:02:08.163Z,24.3
2017-06-08T16:04:05.451Z,24.3
2017-06-08T16:06:07.885Z,24.3
2017-06-08T16:08:07.372Z,24.3
2017-06-08T16:10:05.637Z,24.3
2017-06-08T16:12:04.852Z,24.3
2017-06-08T16:14:10.610Z,24.3
2017-06-08T16:16:08.198Z,24.3
2017-06-08T16:18:05.141Z,24.3
2017-06-08T16:20:07.766Z,24.3
2017-06-08T16:22:11.067Z,24.3
2017-06-08T16:24:06.276Z,24.3
2017-06-08T16:26:07.500Z,24.3
2017-06-08T16:28:05.651Z,24.3
2017-06-08T16:30:05.361Z,24.3
2017-06-08T16:32:05.685Z,24.3
2017-06-08T16:34:11.504Z,24.3
2017-06-08T16:36:05.570Z,24.3
2017-06-08T16:38:05.245Z,24.3
2017-06-08T16:40:05.196Z,24.3
2017-06-08T16:42:05.134Z,24.3
2017-06-08T16:44:07.425Z,24.3
2017-06-08T16:46:08.859Z,24.3
2017-06-08T16:48:05.131Z,24.3
2017-06-08T16:50:10.528Z,24.3
2017-06-08T16:52:05.331Z,24.3
2017-06-08T16:54:05.062Z,24.3
2017-06-08T16:56:04.760Z,24.3
2017-06-08T16:58:04.820Z,24.2
2017-06-08T17:00:04.750Z,24.2
2017-06-08T17:02:07.694Z,24.3
2017-06-08T17:04:05.839Z,24.2
2017-06-08T17:06:06.372Z,24.2
2017-06-08T17:08:06.684Z,24.3
2017-06-08T17:10:10.428Z,24.2
2017-06-08T17:12:12.517Z,24.3
2017-06-08T17:14:04.954Z,24.3
2017-06-08T17:16:05.226Z,24.3
2017-06-08T17:18:09.759Z,24.3
2017-06-08T17:20:05.413Z,24.3
2017-06-08T17:22:07.600Z,24.3
2017-06-08T17:24:05.917Z,24.3
2017-06-08T17:26:12.973Z,24.3
2017-06-08T17:28:06.780Z,24.3
2017-06-08T17:30:04.766Z,24.3
2017-06-08T17:32:06.363Z,24.3
2017-06-08T17:34:05.265Z,24.3
2017-06-08T17:36:04.989Z,24.3
2017-06-08T17:38:04.795Z,24.3
2017-06-08T17:42:04.993Z,24.3
2017-06-08T17:44:04.946Z,24.3
2017-06-08T17:46:05.398Z,24.3
2017-06-08T17:48:05.501Z,24.3
2017-06-08T17:50:07.375Z,24.3
2017-06-08T17:52:10.410Z,24.3
2017-06-08T17:54:36.504Z,24.3
2017-06-08T17:56:50.945Z,24.3
2017-06-08T17:58:04.974Z,24.3
2017-06-08T18:00:23.104Z,24.3
2017-06-08T18:02:04.739Z,24.3
2017-06-08T18:04:05.481Z,24.3
2017-06-08T18:06:10.316Z,24.3
2017-06-08T18:08:05.761Z,24.3
2017-06-08T18:10:09.569Z,24.3
2017-06-08T18:12:05.695Z,24.3
2017-06-08T18:14:05.496Z,24.3
2017-06-08T18:16:05.258Z,24.3
2017-06-08T18:18:05.835Z,24.3
2017-06-08T18:20:05.516Z,24.3
2017-06-08T18:22:07.899Z,24.3
2017-06-08T18:24:22.194Z,24.3
2017-06-08T18:26:05.861Z,24.3
2017-06-08T18:28:05.853Z,24.3
2017-06-08T18:30:06.280Z,24.3
2017-06-08T18:32:05.381Z,24.3
2017-06-08T18:34:08.224Z,24.3
2017-06-08T18:36:05.203Z,24.2
2017-06-08T18:38:05.528Z,24.2
2017-06-08T18:40:05.200Z,24.2
2017-06-08T18:42:08.269Z,24.2
2017-06-08T18:44:05.069Z,24.3
2017-06-08T18:46:10.094Z,24.2
2017-06-08T18:48:08.031Z,24.2
2017-06-08T18:50:04.994Z,24.2
2017-06-08T18:52:10.207Z,24.3
2017-06-08T18:54:18.101Z,24.2
2017-06-08T18:56:10.666Z,24.2
2017-06-08T18:58:07.367Z,24.2
2017-06-08T19:00:04.887Z,24.2
2017-06-08T19:02:08.101Z,24.2
2017-06-08T19:04:15.691Z,24.2
2017-06-08T19:06:04.719Z,24.2
2017-06-08T19:08:05.168Z,24.2
2017-06-08T19:10:05.143Z,24.2
2017-06-08T19:12:04.863Z,24.2
2017-06-08T19:14:08.331Z,24.2
2017-06-08T19:16:10.292Z,24.2
2017-06-08T19:18:05.475Z,24.2
2017-06-08T19:20:05.392Z,24.2
2017-06-08T19:22:06.323Z,24.1
2017-06-08T19:24:05.588Z,24.1
2017-06-08T19:26:05.749Z,24.1
2017-06-08T19:28:05.265Z,24.1
2017-06-08T19:30:04.691Z,24.1
2017-06-08T19:32:05.168Z,24.1
2017-06-08T19:34:05.399Z,24.1
2017-06-08T19:36:05.153Z,24.1
2017-06-08T19:38:04.980Z,24.1
2017-06-08T19:40:11.245Z,24.1
2017-06-08T19:42:05.642Z,24.1
2017-06-08T19:44:10.824Z,24
2017-06-08T19:46:05.544Z,24
2017-06-08T19:48:06.255Z,24.1
2017-06-08T19:50:06.554Z,24.1
2017-06-08T19:52:04.686Z,24
2017-06-08T19:54:05.417Z,24.1
2017-06-08T19:56:07.929Z,24
2017-06-08T19:58:04.782Z,24
2017-06-08T20:00:04.669Z,24
2017-06-08T20:02:05.404Z,24
2017-06-08T20:04:10.713Z,24
2017-06-08T20:06:07.893Z,24.1
2017-06-08T20:08:05.572Z,24
2017-06-08T20:10:05.343Z,24
2017-06-08T20:12:07.665Z,24.1
2017-06-08T20:14:05.383Z,24.1
2017-06-08T20:16:05.452Z,24.2
2017-06-08T20:18:04.820Z,24.1
2017-06-08T20:20:05.852Z,24.1
2017-06-08T20:22:05.619Z,24
2017-06-08T20:24:05.518Z,24
2017-06-08T20:26:05.429Z,24.2
2017-06-08T20:28:07.333Z,24
2017-06-08T20:30:05.107Z,24
2017-06-08T20:32:06.015Z,24
2017-06-08T20:34:05.456Z,24
2017-06-08T20:36:07.853Z,24
2017-06-08T20:38:08.080Z,24
2017-06-08T20:40:07.693Z,23.9
2017-06-08T20:42:05.423Z,23.9
2017-06-08T20:44:04.720Z,24
2017-06-08T20:46:10.497Z,24
2017-06-08T20:48:05.249Z,23.9
2017-06-08T20:50:10.027Z,24
2017-06-08T20:52:09.947Z,24
2017-06-08T20:54:04.811Z,24
2017-06-08T20:56:05.601Z,24.1
2017-06-08T20:58:05.462Z,24.1
2017-06-08T21:00:05.247Z,24
2017-06-08T21:02:05.103Z,24
2017-06-08T21:04:05.400Z,24
2017-06-08T21:06:10.158Z,24
2017-06-08T21:08:04.843Z,23.9
2017-06-08T21:10:05.774Z,23.9
2017-06-08T21:12:05.431Z,24
2017-06-08T21:14:05.165Z,24
2017-06-08T21:16:05.058Z,24
2017-06-08T21:18:04.961Z,24.1
2017-06-08T21:20:04.648Z,24
2017-06-08T21:22:05.128Z,24
2017-06-08T21:24:05.204Z,23.9
2017-06-08T21:26:04.871Z,23.9
2017-06-08T21:28:08.184Z,23.9
2017-06-08T21:30:05.165Z,23.9
2017-06-08T21:32:04.881Z,23.9
2017-06-08T21:34:08.277Z,23.9
2017-06-08T21:36:05.073Z,23.9
2017-06-08T21:38:04.901Z,24
2017-06-08T21:40:04.755Z,24
2017-06-08T21:42:05.453Z,24
2017-06-08T21:44:05.232Z,24
2017-06-08T21:46:05.076Z,24
2017-06-08T21:48:07.303Z,23.9
2017-06-08T21:50:05.538Z,24
2017-06-08T21:52:04.755Z,23.9
2017-06-08T21:54:05.421Z,23.9
2017-06-08T21:56:05.180Z,23.9
2017-06-08T21:58:05.034Z,23.9
2017-06-08T22:00:04.730Z,23.9
2017-06-08T22:02:13.015Z,23.9
2017-06-08T22:04:10.072Z,23.9
2017-06-08T22:06:12.431Z,23.9
2017-06-08T22:08:04.704Z,23.9
2017-06-08T22:10:05.566Z,23.9
2017-06-08T22:12:10.548Z,23.9
2017-06-08T22:14:05.271Z,23.9
2017-06-08T22:16:07.790Z,23.8
2017-06-08T22:18:04.683Z,23.8
2017-06-08T22:20:15.879Z,23.7
2017-06-08T22:22:06.022Z,23.7
2017-06-08T22:24:05.218Z,23.7
2017-06-08T22:26:05.518Z,23.6
2017-06-08T22:28:05.379Z,23.5
2017-06-08T22:30:07.639Z,23.4
2017-06-08T22:32:05.376Z,23.4
2017-06-08T22:34:07.691Z,23.5
2017-06-08T22:36:05.404Z,23.5
2017-06-08T22:38:07.798Z,23.6
2017-06-08T22:40:08.427Z,23.5
2017-06-08T22:42:05.148Z,23.5
2017-06-08T22:44:10.083Z,23.6
2017-06-08T22:46:07.555Z,23.6
2017-06-08T22:48:04.882Z,23.6
2017-06-08T22:50:04.644Z,23.7
2017-06-08T22:52:05.456Z,23.7
2017-06-08T22:54:05.330Z,23.7
2017-06-08T22:56:05.111Z,23.7
2017-06-08T22:58:07.407Z,23.7
2017-06-08T23:00:05.149Z,23.7
2017-06-08T23:02:04.842Z,23.7
2017-06-08T23:04:05.569Z,23.6
2017-06-08T23:06:04.846Z,23.6
2017-06-08T23:08:05.175Z,23.6
2017-06-08T23:10:05.570Z,23.5
2017-06-08T23:12:05.289Z,23.5
2017-06-08T23:14:05.124Z,23.4
2017-06-08T23:16:05.008Z,23.4
2017-06-08T23:18:12.595Z,23.4
2017-06-08T23:20:10.562Z,23.4
2017-06-08T23:22:05.311Z,23.4
2017-06-08T23:24:05.061Z,23.4
2017-06-08T23:26:12.429Z,23.4
2017-06-08T23:28:12.441Z,23.4
2017-06-08T23:30:05.371Z,23.4
2017-06-08T23:32:06.494Z,23.3
2017-06-08T23:34:05.409Z,23.3
2017-06-08T23:36:04.666Z,23.3
2017-06-08T23:38:05.394Z,23.3
2017-06-08T23:40:05.419Z,23.2
2017-06-08T23:42:07.602Z,23.2
2017-06-08T23:44:05.281Z,23.2
2017-06-08T23:46:07.742Z,23.2
2017-06-08T23:48:05.119Z,23.1
2017-06-08T23:50:04.931Z,23.1
2017-06-08T23:52:10.614Z,23.1
2017-06-08T23:54:10.379Z,23.1
2017-06-08T23:56:05.085Z,23.1
2017-06-08T23:58:05.211Z,23
